createdAt,value
2018-07-24T00:02:09.705Z,17.12
2018-07-24T00:04:39.769Z,16.85
2018-07-24T00:07:11.461Z,16.65
2018-07-24T00:09:43.595Z,17.82
2018-07-24T00:12:14.346Z,17.90
2018-07-24T00:14:46.829Z,20.30
2018-07-24T00:17:18.398Z,19.20
2018-07-24T00:19:48.319Z,21.23
2018-07-24T00:22:18.211Z,20.05
2018-07-24T00:24:48.101Z,21.50
2018-07-24T00:27:17.814Z,19.15
2018-07-24T00:29:47.558Z,20.20
2018-07-24T00:32:17.370Z,19.25
2018-07-24T00:34:47.231Z,19.98
2018-07-24T00:37:17.787Z,18.27
2018-07-24T00:39:47.519Z,18.20
2018-07-24T00:42:17.242Z,15.35
2018-07-24T00:44:48.020Z,16.05
2018-07-24T00:47:18.486Z,15.70
2018-07-24T00:49:48.199Z,18.25
2018-07-24T00:52:21.134Z,17.30
2018-07-24T00:54:50.889Z,16.90
2018-07-24T00:57:21.374Z,17.70
2018-07-24T00:59:51.078Z,17.17
2018-07-24T01:02:21.105Z,16.93
2018-07-24T01:04:50.948Z,17.27
2018-07-24T01:07:20.850Z,16.82
2018-07-24T01:09:50.640Z,16.95
2018-07-24T01:12:20.930Z,16.90
2018-07-24T01:14:50.783Z,16.30
2018-07-24T01:17:20.570Z,16.48
2018-07-24T01:19:50.354Z,16.57
2018-07-24T01:22:20.102Z,16.93
2018-07-24T01:24:51.298Z,16.75
2018-07-24T01:27:21.320Z,17.10
2018-07-24T01:29:51.038Z,16.32
2018-07-24T01:32:20.770Z,16.17
2018-07-24T01:34:55.360Z,17.10
2018-07-24T01:37:25.978Z,17.42
2018-07-24T01:39:55.691Z,17.45
2018-07-24T01:42:25.407Z,17.62
2018-07-24T01:44:55.314Z,15.38
2018-07-24T01:47:25.047Z,17.10
2018-07-24T01:49:54.752Z,18.40
2018-07-24T01:52:30.787Z,18.32
2018-07-24T01:55:00.810Z,20.68
2018-07-24T01:57:31.952Z,20.95
2018-07-24T02:00:05.279Z,21.12
2018-07-24T02:02:35.028Z,21.12
2018-07-24T02:05:06.698Z,20.62
2018-07-24T02:07:38.112Z,19.37
2018-07-24T02:10:07.966Z,20.12
2018-07-24T02:12:41.747Z,17.90
2018-07-24T02:15:13.095Z,19.32
2018-07-24T02:17:43.359Z,19.77
2018-07-24T02:20:13.262Z,19.42
2018-07-24T02:22:43.459Z,19.67
2018-07-24T02:25:13.743Z,18.77
2018-07-24T02:27:43.475Z,19.57
2018-07-24T02:30:13.219Z,18.57
2018-07-24T02:32:43.080Z,19.70
2018-07-24T02:35:13.894Z,20.32
2018-07-24T02:37:43.615Z,19.85
2018-07-24T02:40:13.377Z,19.50
2018-07-24T02:42:43.142Z,18.87
2018-07-24T02:45:12.855Z,16.55
2018-07-24T02:47:42.878Z,16.27
2018-07-24T02:50:12.927Z,15.85
2018-07-24T02:52:42.740Z,16.50
2018-07-24T02:55:12.455Z,16.02
2018-07-24T02:57:44.256Z,15.75
2018-07-24T03:00:14.111Z,16.02
2018-07-24T03:02:44.218Z,15.70
2018-07-24T03:05:14.051Z,16.12
2018-07-24T03:07:46.306Z,17.45
2018-07-24T03:10:16.188Z,17.95
2018-07-24T03:12:48.341Z,17.57
2018-07-24T03:15:21.903Z,17.40
2018-07-24T03:17:58.232Z,18.55
2018-07-24T03:20:28.836Z,19.73
2018-07-24T03:22:59.190Z,20.17
2018-07-24T03:25:29.108Z,19.45
2018-07-24T03:27:58.841Z,19.87
2018-07-24T03:30:31.331Z,20.27
2018-07-24T03:33:04.796Z,19.35
2018-07-24T03:35:34.623Z,18.20
2018-07-24T03:38:04.734Z,16.57
2018-07-24T03:40:34.482Z,17.10
2018-07-24T03:43:07.713Z,17.87
2018-07-24T03:45:42.962Z,19.30
2018-07-24T03:48:12.719Z,19.15
2018-07-24T03:50:42.426Z,18.82
2018-07-24T03:53:13.392Z,19.35
2018-07-24T03:55:43.074Z,19.35
2018-07-24T03:58:13.310Z,19.85
2018-07-24T04:00:43.131Z,19.65
2018-07-24T04:03:12.855Z,20.08
2018-07-24T04:05:42.558Z,19.80
2018-07-24T04:08:12.273Z,19.62
2018-07-24T04:10:41.963Z,19.32
2018-07-24T04:13:11.699Z,19.00
2018-07-24T04:15:41.399Z,18.35
2018-07-24T04:18:11.127Z,18.35
2018-07-24T04:20:40.850Z,17.67
2018-07-24T04:23:10.934Z,18.07
2018-07-24T04:25:40.657Z,17.82
2018-07-24T04:28:10.375Z,18.07
2018-07-24T04:30:40.118Z,16.95
2018-07-24T04:33:10.366Z,16.32
2018-07-24T04:35:40.066Z,16.70
2018-07-24T04:38:09.811Z,17.65
2018-07-24T04:40:39.514Z,16.60
2018-07-24T04:43:09.246Z,17.67
2018-07-24T04:45:45.023Z,18.05
2018-07-24T04:48:14.728Z,18.23
2018-07-24T04:50:44.437Z,17.37
2018-07-24T04:53:14.163Z,18.42
2018-07-24T04:55:43.979Z,16.73
2018-07-24T04:58:13.402Z,17.98
2018-07-24T05:00:43.023Z,15.98
2018-07-24T05:03:12.743Z,16.87
2018-07-24T05:05:42.446Z,16.55
2018-07-24T05:08:12.180Z,16.12
2018-07-24T05:10:41.906Z,16.50
2018-07-24T05:13:11.672Z,18.00
2018-07-24T05:15:41.386Z,17.52
2018-07-24T05:18:11.104Z,16.30
2018-07-24T05:20:40.850Z,18.52
2018-07-24T05:23:10.603Z,17.55
2018-07-24T05:25:40.711Z,18.20
2018-07-24T05:28:10.459Z,17.42
2018-07-24T05:30:40.215Z,16.85
2018-07-24T05:33:09.951Z,15.63
2018-07-24T05:35:39.867Z,18.32
2018-07-24T05:38:09.571Z,17.42
2018-07-24T05:40:39.354Z,17.05
2018-07-24T05:43:09.062Z,16.95
2018-07-24T05:45:44.490Z,17.15
2018-07-24T05:48:14.174Z,24.77
2018-07-24T05:50:43.886Z,19.25
2018-07-24T05:53:13.590Z,17.15
2018-07-24T05:55:43.346Z,15.63
2018-07-24T05:58:13.063Z,15.35
2018-07-24T06:00:43.532Z,16.37
2018-07-24T06:03:13.259Z,12.75
2018-07-24T06:05:43.275Z,13.75
2018-07-24T06:08:12.977Z,13.30
2018-07-24T06:10:46.158Z,14.15
2018-07-24T06:13:16.760Z,13.60
2018-07-24T06:15:46.959Z,13.75
2018-07-24T06:18:16.651Z,13.60
2018-07-24T06:20:46.371Z,13.68
2018-07-24T06:23:16.107Z,13.40
2018-07-24T06:25:46.194Z,14.93
2018-07-24T06:28:15.896Z,14.60
2018-07-24T06:30:45.659Z,13.85
2018-07-24T06:33:15.342Z,13.25
2018-07-24T06:35:45.099Z,13.05
2018-07-24T06:38:15.039Z,13.95
2018-07-24T06:40:44.839Z,13.50
2018-07-24T06:43:14.544Z,12.82
2018-07-24T06:45:49.966Z,12.50
2018-07-24T06:48:19.676Z,12.93
2018-07-24T06:50:49.391Z,12.47
2018-07-24T06:53:19.082Z,12.00
2018-07-24T06:55:48.803Z,13.10
2018-07-24T06:58:18.525Z,13.70
2018-07-24T07:00:48.278Z,13.25
2018-07-24T07:03:17.991Z,13.62
2018-07-24T07:05:47.947Z,13.10
2018-07-24T07:08:17.663Z,12.88
2018-07-24T07:10:47.398Z,12.40
2018-07-24T07:13:17.142Z,12.15
2018-07-24T07:15:46.862Z,12.23
2018-07-24T07:18:16.563Z,11.38
2018-07-24T07:20:46.307Z,11.55
2018-07-24T07:23:16.154Z,10.90
2018-07-24T07:25:46.394Z,11.22
2018-07-24T07:28:16.118Z,10.13
2018-07-24T07:30:45.827Z,8.93
2018-07-24T07:33:15.507Z,9.33
2018-07-24T07:35:45.233Z,9.40
2018-07-24T07:38:14.899Z,9.68
2018-07-24T07:40:44.595Z,9.53
2018-07-24T07:43:14.262Z,9.63
2018-07-24T07:45:49.618Z,9.00
2018-07-24T07:48:19.486Z,9.08
2018-07-24T07:50:49.182Z,8.85
2018-07-24T07:53:19.154Z,9.23
2018-07-24T07:55:48.855Z,9.00
2018-07-24T07:58:18.714Z,9.50
2018-07-24T08:00:48.472Z,8.73
2018-07-24T08:03:20.041Z,9.53
2018-07-24T08:05:49.737Z,9.13
2018-07-24T08:08:19.394Z,9.00
2018-07-24T08:10:49.434Z,9.18
2018-07-24T08:13:19.119Z,9.53
2018-07-24T08:15:48.821Z,9.38
2018-07-24T08:18:18.484Z,9.18
2018-07-24T08:20:48.193Z,10.03
2018-07-24T08:23:17.866Z,9.83
2018-07-24T08:25:47.905Z,9.43
2018-07-24T08:28:17.583Z,9.83
2018-07-24T08:30:47.266Z,9.65
2018-07-24T08:33:16.950Z,9.65
2018-07-24T08:35:46.694Z,9.28
2018-07-24T08:38:16.380Z,10.60
2018-07-24T08:40:46.082Z,9.85
2018-07-24T08:43:15.818Z,10.68
2018-07-24T08:45:51.210Z,10.35
2018-07-24T08:48:20.974Z,9.20
2018-07-24T08:50:51.456Z,9.45
2018-07-24T08:53:22.647Z,9.30
2018-07-24T08:55:52.704Z,9.18
2018-07-24T08:58:22.467Z,9.38
2018-07-24T09:00:52.359Z,9.35
2018-07-24T09:03:22.122Z,9.40
2018-07-24T09:05:52.167Z,8.40
2018-07-24T09:08:22.054Z,8.15
2018-07-24T09:10:51.820Z,8.40
2018-07-24T09:13:21.551Z,8.23
2018-07-24T09:15:51.262Z,8.55
2018-07-24T09:18:20.947Z,7.78
2018-07-24T09:20:50.630Z,8.38
2018-07-24T09:23:20.518Z,8.18
2018-07-24T09:25:50.197Z,8.48
2018-07-24T09:28:21.597Z,8.85
2018-07-24T09:30:51.295Z,9.48
2018-07-24T09:33:21.039Z,8.85
2018-07-24T09:35:50.922Z,8.98
2018-07-24T09:38:20.618Z,8.70
2018-07-24T09:40:50.675Z,8.75
2018-07-24T09:43:20.427Z,8.63
2018-07-24T09:45:55.836Z,9.03
2018-07-24T09:48:25.698Z,8.20
2018-07-24T09:50:55.722Z,8.63
2018-07-24T09:53:26.283Z,9.10
2018-07-24T09:55:56.024Z,8.77
2018-07-24T09:58:26.734Z,9.40
2018-07-24T10:01:01.689Z,9.13
2018-07-24T10:03:31.379Z,9.40
2018-07-24T10:06:01.060Z,8.73
2018-07-24T10:08:30.770Z,8.65
2018-07-24T10:11:00.535Z,8.43
2018-07-24T10:13:30.357Z,8.28
2018-07-24T10:16:00.055Z,8.40
2018-07-24T10:18:29.774Z,8.38
2018-07-24T10:21:01.011Z,8.40
2018-07-24T10:23:30.724Z,8.33
2018-07-24T10:26:00.846Z,8.55
2018-07-24T10:28:30.595Z,8.80
2018-07-24T10:31:00.280Z,8.98
2018-07-24T10:33:29.999Z,8.45
2018-07-24T10:35:59.719Z,8.68
2018-07-24T10:38:29.778Z,8.55
2018-07-24T10:40:59.488Z,8.45
2018-07-24T10:43:29.547Z,8.03
2018-07-24T10:46:04.784Z,7.50
2018-07-24T10:48:34.482Z,7.90
2018-07-24T10:51:04.507Z,7.90
2018-07-24T10:53:39.431Z,7.10
2018-07-24T10:56:09.132Z,7.92
2018-07-24T10:58:38.859Z,7.80
2018-07-24T11:01:08.911Z,7.65
2018-07-24T11:03:43.888Z,8.20
2018-07-24T11:06:13.314Z,7.67
2018-07-24T11:08:42.706Z,7.27
2018-07-24T11:11:12.715Z,7.28
2018-07-24T11:13:42.444Z,7.80
2018-07-24T11:16:13.210Z,7.10
2018-07-24T11:18:42.916Z,6.75
2018-07-24T11:21:13.367Z,6.28
2018-07-24T11:23:42.803Z,7.53
2018-07-24T11:26:12.536Z,7.10
2018-07-24T11:28:42.355Z,6.93
2018-07-24T11:31:11.931Z,6.43
2018-07-24T11:33:44.293Z,6.97
2018-07-24T11:36:16.308Z,6.95
2018-07-24T11:38:46.088Z,7.20
2018-07-24T11:41:15.598Z,7.60
2018-07-24T11:43:45.952Z,7.20
2018-07-24T11:46:15.418Z,6.50
2018-07-24T11:48:45.318Z,6.17
2018-07-24T11:51:15.080Z,6.13
2018-07-24T11:53:44.590Z,6.57
2018-07-24T11:56:14.048Z,6.23
2018-07-24T11:58:44.715Z,6.87
2018-07-24T12:01:16.426Z,6.70
2018-07-24T12:03:46.200Z,6.97
2018-07-24T12:06:16.749Z,7.30
2018-07-24T12:08:46.450Z,9.98
2018-07-24T12:11:16.214Z,6.40
2018-07-24T12:13:45.599Z,7.20
2018-07-24T12:16:18.724Z,6.70
2018-07-24T12:18:48.247Z,6.40
2018-07-24T12:21:19.110Z,6.37
2018-07-24T12:23:48.511Z,6.50
2018-07-24T12:26:20.228Z,6.20
2018-07-24T12:28:51.265Z,6.23
2018-07-24T12:31:22.389Z,6.10
2018-07-24T12:33:51.797Z,7.03
2018-07-24T12:36:21.291Z,6.50
2018-07-24T12:38:54.351Z,6.30
2018-07-24T12:41:24.082Z,6.27
2018-07-24T12:43:53.495Z,6.87
2018-07-24T12:46:24.048Z,6.50
2018-07-24T12:48:53.455Z,6.47
2018-07-24T12:51:23.714Z,6.33
2018-07-24T12:53:53.922Z,6.20
2018-07-24T12:56:24.444Z,6.37
2018-07-24T12:58:56.486Z,7.67
2018-07-24T13:01:25.940Z,6.00
2018-07-24T13:03:55.363Z,5.63
2018-07-24T13:06:24.969Z,5.87
2018-07-24T13:08:54.502Z,6.00
2018-07-24T13:11:24.026Z,5.60
2018-07-24T13:13:53.423Z,5.80
2018-07-24T13:16:22.827Z,5.60
2018-07-24T13:18:52.270Z,6.47
2018-07-24T13:21:21.710Z,6.30
2018-07-24T13:23:51.133Z,6.27
2018-07-24T13:26:20.550Z,6.37
2018-07-24T13:28:49.962Z,6.50
2018-07-24T13:31:19.415Z,6.20
2018-07-24T13:33:48.805Z,5.90
2018-07-24T13:36:18.223Z,6.40
2018-07-24T13:38:47.618Z,6.97
2018-07-24T13:41:17.063Z,6.40
2018-07-24T13:43:46.623Z,6.10
2018-07-24T13:46:16.122Z,6.07
2018-07-24T13:48:45.507Z,5.63
2018-07-24T13:51:14.910Z,5.80
2018-07-24T13:53:44.305Z,5.83
2018-07-24T13:56:13.733Z,5.93
2018-07-24T13:58:43.109Z,5.33
2018-07-24T14:01:12.863Z,5.23
2018-07-24T14:03:42.261Z,5.43
2018-07-24T14:06:11.802Z,5.80
2018-07-24T14:08:41.192Z,6.13
2018-07-24T14:11:10.679Z,6.20
2018-07-24T14:13:40.243Z,6.00
2018-07-24T14:16:09.666Z,5.97
2018-07-24T14:18:39.148Z,6.30
2018-07-24T14:21:08.611Z,6.23
2018-07-24T14:23:37.997Z,6.07
2018-07-24T14:26:07.459Z,5.70
2018-07-24T14:28:36.871Z,5.87
2018-07-24T14:31:06.351Z,5.77
2018-07-24T14:33:35.897Z,5.90
2018-07-24T14:36:05.308Z,5.27
2018-07-24T14:38:34.710Z,5.30
2018-07-24T14:41:04.146Z,5.63
2018-07-24T14:43:33.559Z,5.90
2018-07-24T14:46:03.039Z,6.00
2018-07-24T14:48:32.936Z,6.27
2018-07-24T14:51:02.347Z,6.20
2018-07-24T14:53:31.766Z,5.33
2018-07-24T14:56:01.182Z,7.10
2018-07-24T14:58:30.837Z,5.33
2018-07-24T15:01:00.279Z,5.33
2018-07-24T15:03:29.684Z,5.50
2018-07-24T15:05:59.190Z,5.93
2018-07-24T15:08:28.596Z,6.23
2018-07-24T15:11:03.243Z,5.67
2018-07-24T15:13:32.635Z,5.57
2018-07-24T15:16:02.421Z,6.50
2018-07-24T15:18:34.597Z,5.83
2018-07-24T15:21:04.459Z,5.80
2018-07-24T15:23:33.885Z,6.00
2018-07-24T15:26:03.500Z,6.50
2018-07-24T15:28:33.800Z,5.53
2018-07-24T15:31:03.662Z,5.03
2018-07-24T15:33:33.330Z,5.80
2018-07-24T15:36:03.479Z,5.10
2018-07-24T15:38:32.920Z,5.40
2018-07-24T15:41:02.587Z,6.30
2018-07-24T15:43:32.882Z,5.73
2018-07-24T15:46:02.515Z,4.87
2018-07-24T15:48:33.450Z,5.33
2018-07-24T15:51:05.843Z,5.00
2018-07-24T15:53:35.327Z,5.53
2018-07-24T15:56:04.805Z,5.27
2018-07-24T15:58:34.578Z,5.60
2018-07-24T16:01:05.888Z,5.50
2018-07-24T16:03:41.190Z,5.43
2018-07-24T16:06:10.889Z,5.73
2018-07-24T16:08:44.969Z,5.10
2018-07-24T16:11:15.676Z,5.50
2018-07-24T16:13:45.111Z,5.60
2018-07-24T16:16:14.581Z,5.53
2018-07-24T16:18:44.331Z,5.23
2018-07-24T16:21:13.803Z,5.60
2018-07-24T16:23:43.404Z,5.43
2018-07-24T16:26:13.174Z,5.30
2018-07-24T16:28:42.585Z,5.40
2018-07-24T16:31:11.983Z,5.47
2018-07-24T16:33:41.415Z,5.10
2018-07-24T16:36:10.806Z,5.43
2018-07-24T16:38:39.923Z,6.33
2018-07-24T16:41:09.611Z,5.70
2018-07-24T16:43:39.039Z,5.73
2018-07-24T16:46:09.379Z,5.27
2018-07-24T16:48:38.790Z,5.53
2018-07-24T16:51:08.215Z,6.60
2018-07-24T16:53:37.623Z,6.07
2018-07-24T16:56:07.261Z,5.47
2018-07-24T16:58:37.275Z,4.87
2018-07-24T17:01:07.231Z,4.87
2018-07-24T17:03:39.964Z,5.50
2018-07-24T17:06:09.493Z,5.40
2018-07-24T17:08:38.815Z,5.57
2018-07-24T17:11:08.474Z,5.10
2018-07-24T17:13:37.921Z,5.33
2018-07-24T17:16:07.354Z,4.97
2018-07-24T17:18:36.922Z,6.33
2018-07-24T17:21:06.907Z,5.43
2018-07-24T17:23:36.326Z,4.97
2018-07-24T17:26:06.106Z,4.70
2018-07-24T17:28:36.019Z,4.85
2018-07-24T17:31:06.162Z,4.95
2018-07-24T17:33:35.562Z,5.23
2018-07-24T17:36:05.267Z,5.23
2018-07-24T17:38:34.701Z,5.10
2018-07-24T17:41:04.120Z,5.40
2018-07-24T17:43:33.527Z,5.63
2018-07-24T17:46:02.935Z,5.20
2018-07-24T17:48:32.503Z,4.87
2018-07-24T17:51:02.057Z,5.40
2018-07-24T17:53:31.647Z,5.50
2018-07-24T17:56:01.032Z,5.20
2018-07-24T17:58:30.455Z,5.07
2018-07-24T18:00:59.912Z,4.90
2018-07-24T18:03:29.506Z,5.17
2018-07-24T18:05:58.935Z,5.90
2018-07-24T18:08:28.348Z,5.50
2018-07-24T18:10:58.366Z,5.23
2018-07-24T18:13:27.768Z,5.37
2018-07-24T18:15:57.217Z,5.57
2018-07-24T18:18:26.831Z,5.80
2018-07-24T18:20:56.191Z,5.40
2018-07-24T18:23:25.912Z,5.30
2018-07-24T18:25:55.418Z,5.00
2018-07-24T18:28:24.848Z,5.27
2018-07-24T18:30:54.379Z,5.50
2018-07-24T18:33:23.911Z,5.30
2018-07-24T18:35:53.427Z,5.17
2018-07-24T18:38:22.860Z,5.40
2018-07-24T18:40:52.620Z,5.95
2018-07-24T18:43:22.018Z,5.80
2018-07-24T18:45:52.369Z,5.70
2018-07-24T18:48:21.806Z,5.70
2018-07-24T18:50:51.531Z,6.12
2018-07-24T18:53:21.701Z,6.03
2018-07-24T18:55:51.487Z,5.83
2018-07-24T18:58:21.233Z,6.25
2018-07-24T19:00:50.969Z,5.97
2018-07-24T19:03:20.686Z,6.25
2018-07-24T19:05:50.386Z,5.97
2018-07-24T19:08:20.126Z,6.50
2018-07-24T19:10:49.831Z,6.37
2018-07-24T19:13:19.499Z,6.40
2018-07-24T19:15:49.213Z,6.83
2018-07-24T19:18:18.895Z,6.65
2018-07-24T19:20:48.598Z,6.30
2018-07-24T19:23:18.315Z,6.12
2018-07-24T19:25:47.999Z,6.60
2018-07-24T19:28:17.678Z,6.15
2018-07-24T19:30:47.418Z,6.05
2018-07-24T19:33:17.523Z,6.08
2018-07-24T19:35:47.215Z,6.60
2018-07-24T19:38:16.979Z,6.55
2018-07-24T19:40:46.711Z,6.40
2018-07-24T19:43:16.387Z,6.83
2018-07-24T19:45:53.094Z,7.15
2018-07-24T19:48:22.823Z,7.33
2018-07-24T19:50:56.341Z,7.55
2018-07-24T19:53:31.099Z,7.30
2018-07-24T19:56:03.131Z,7.08
2018-07-24T19:58:34.031Z,7.42
2018-07-24T20:01:03.850Z,6.53
2018-07-24T20:03:35.985Z,7.15
2018-07-24T20:06:06.395Z,6.62
2018-07-24T20:08:36.607Z,6.67
2018-07-24T20:11:06.351Z,6.30
2018-07-24T20:13:36.067Z,7.03
2018-07-24T20:16:06.215Z,6.87
2018-07-24T20:18:35.874Z,7.20
2018-07-24T20:21:06.280Z,6.60
2018-07-24T20:23:36.030Z,6.97
2018-07-24T20:26:05.874Z,7.20
2018-07-24T20:28:35.537Z,6.53
2018-07-24T20:31:05.281Z,6.30
2018-07-24T20:33:35.056Z,6.12
2018-07-24T20:36:06.582Z,6.70
2018-07-24T20:38:36.619Z,6.60
2018-07-24T20:41:06.747Z,6.95
2018-07-24T20:43:38.329Z,7.08
2018-07-24T20:46:14.099Z,8.40
2018-07-24T20:48:45.778Z,7.72
2018-07-24T20:51:15.755Z,8.20
2018-07-24T20:53:45.563Z,8.23
2018-07-24T20:56:15.246Z,8.88
2018-07-24T20:58:44.922Z,9.75
2018-07-24T21:01:19.653Z,9.03
2018-07-24T21:03:49.796Z,9.00
2018-07-24T21:06:22.030Z,10.00
2018-07-24T21:08:53.167Z,9.90
2018-07-24T21:11:22.903Z,10.32
2018-07-24T21:13:52.606Z,10.23
2018-07-24T21:16:22.387Z,9.80
2018-07-24T21:18:52.264Z,9.50
2018-07-24T21:21:21.972Z,10.18
2018-07-24T21:23:51.738Z,10.10
2018-07-24T21:26:21.453Z,10.40
2018-07-24T21:28:51.124Z,9.45
2018-07-24T21:31:21.519Z,10.38
2018-07-24T21:33:51.869Z,10.18
2018-07-24T21:36:22.290Z,9.28
2018-07-24T21:38:54.540Z,9.33
2018-07-24T21:41:24.231Z,8.90
2018-07-24T21:43:53.914Z,9.93
2018-07-24T21:46:23.718Z,10.10
2018-07-24T21:48:53.456Z,9.58
2018-07-24T21:51:23.682Z,9.85
2018-07-24T21:53:53.121Z,9.60
2018-07-24T21:56:27.059Z,8.43
2018-07-24T21:58:57.114Z,10.45
2018-07-24T22:01:26.938Z,8.28
2018-07-24T22:03:56.706Z,8.13
2018-07-24T22:06:26.942Z,9.48
2018-07-24T22:08:59.745Z,8.83
2018-07-24T22:11:30.654Z,9.33
2018-07-24T22:14:00.340Z,9.93
2018-07-24T22:16:30.526Z,8.85
2018-07-24T22:19:00.911Z,8.78
2018-07-24T22:21:30.819Z,8.43
2018-07-24T22:24:00.738Z,9.10
2018-07-24T22:26:30.419Z,9.33
2018-07-24T22:29:02.707Z,10.35
2018-07-24T22:31:37.824Z,8.78
2018-07-24T22:34:07.583Z,8.88
2018-07-24T22:36:37.287Z,8.85
2018-07-24T22:39:09.342Z,9.68
2018-07-24T22:41:39.123Z,8.33
2018-07-24T22:44:11.358Z,8.38
2018-07-24T22:46:41.056Z,8.68
2018-07-24T22:49:12.671Z,8.58
2018-07-24T22:51:45.307Z,9.18
2018-07-24T22:54:15.123Z,8.58
2018-07-24T22:56:44.837Z,8.90
2018-07-24T22:59:14.714Z,8.75
2018-07-24T23:01:44.414Z,8.53
2018-07-24T23:04:14.089Z,9.38
2018-07-24T23:06:43.814Z,9.73
2018-07-24T23:09:13.499Z,9.00
2018-07-24T23:11:43.198Z,8.58
2018-07-24T23:14:14.450Z,9.60
2018-07-24T23:16:44.150Z,8.78
2018-07-24T23:19:13.822Z,8.55
2018-07-24T23:21:43.546Z,9.15
2018-07-24T23:24:13.242Z,8.80
2018-07-24T23:26:42.906Z,8.48
2018-07-24T23:29:12.638Z,8.70
2018-07-24T23:31:42.329Z,8.55
2018-07-24T23:34:12.027Z,8.03
2018-07-24T23:36:41.726Z,8.28
2018-07-24T23:39:12.086Z,8.20
2018-07-24T23:41:41.792Z,8.35
2018-07-24T23:44:11.507Z,9.05
2018-07-24T23:46:41.185Z,8.88
2018-07-24T23:49:10.886Z,8.85
2018-07-24T23:51:40.600Z,8.08
2018-07-24T23:54:10.302Z,8.65
2018-07-24T23:56:39.995Z,9.23
2018-07-24T23:59:09.687Z,8.80
